Time;durP1;ratioP1;P1;durP2;ratioP2;P2;SDS_P1;SDS_P2;PMS_P1;PMS_P2;Temp;Humidity;BMP_temperature;BMP_pressure;BME280_temperature;BME280_humidity;BME280_pressure;Samples;Min_cycle;Max_cycle;Signal;HPM_P1;HPM_P2
2021/04/05 00:00:00;;;;;;;17.10;7.37;;;5.90;99.90;;;;;;5004500;28;20354;-53
2021/04/05 00:02:26;;;;;;;14.70;8.23;;;6.00;99.90;;;;;;5002223;28;20461;-51
2021/04/05 00:04:53;;;;;;;11.37;7.33;;;5.90;99.90;;;;;;5000114;28;20209;-53
2021/04/05 00:07:19;;;;;;;16.83;8.30;;;5.90;99.90;;;;;;4984014;28;20220;-48
2021/04/05 00:09:46;;;;;;;15.60;8.53;;;6.00;99.90;;;;;;4996865;28;20220;-53
2021/04/05 00:12:13;;;;;;;16.50;9.10;;;6.00;99.90;;;;;;4990536;28;20192;-55
2021/04/05 00:14:40;;;;;;;13.57;7.27;;;6.00;99.90;;;;;;5001488;28;20220;-48
2021/04/05 00:17:06;;;;;;;15.87;8.30;;;6.00;99.90;;;;;;5000935;28;20299;-50
2021/04/05 00:19:32;;;;;;;14.13;8.10;;;6.00;99.90;;;;;;5000892;28;20414;-54
2021/04/05 00:22:00;;;;;;;12.67;8.30;;;6.00;99.90;;;;;;4996305;28;20239;-49
2021/04/05 00:24:26;;;;;;;18.27;8.20;;;6.00;99.90;;;;;;4981820;28;20301;-50
2021/04/05 00:26:52;;;;;;;13.80;7.10;;;6.00;99.90;;;;;;4994573;28;20201;-51
2021/04/05 00:29:18;;;;;;;13.73;8.40;;;6.10;99.90;;;;;;4999430;28;20309;-51
2021/04/05 00:31:44;;;;;;;13.13;7.90;;;6.10;99.90;;;;;;5004884;28;20561;-52
2021/04/05 00:34:10;;;;;;;15.87;8.90;;;6.10;99.90;;;;;;4999995;28;20205;-55
2021/04/05 00:36:36;;;;;;;15.33;7.40;;;6.10;99.90;;;;;;4996509;28;20211;-49
2021/04/05 00:39:05;;;;;;;16.33;7.97;;;6.10;99.90;;;;;;4994989;28;20228;-55
2021/04/05 00:41:31;;;;;;;12.10;7.27;;;6.10;99.90;;;;;;4993847;28;20238;-48
2021/04/05 00:43:58;;;;;;;17.87;9.43;;;6.20;99.90;;;;;;4999032;28;20196;-50
2021/04/05 00:46:25;;;;;;;16.53;8.83;;;6.20;99.90;;;;;;4996737;28;20353;-48
2021/04/05 00:48:52;;;;;;;17.83;8.60;;;6.20;99.90;;;;;;4996804;28;20205;-51
2021/04/05 00:51:22;;;;;;;15.73;8.23;;;6.20;99.90;;;;;;4989769;28;20259;-49
2021/04/05 00:53:50;;;;;;;13.93;9.37;;;6.20;99.90;;;;;;5002446;28;20204;-48
2021/04/05 00:56:19;;;;;;;15.53;9.70;;;6.30;99.90;;;;;;4977054;28;20232;-52
2021/04/05 00:58:46;;;;;;;17.17;9.27;;;6.30;99.90;;;;;;4996924;28;20201;-49
2021/04/05 01:01:14;;;;;;;17.57;9.77;;;6.30;99.90;;;;;;4998624;28;20693;-50
2021/04/05 01:03:43;;;;;;;16.90;8.73;;;6.30;99.90;;;;;;5002606;28;20546;-53
2021/04/05 01:06:13;;;;;;;16.43;9.93;;;6.30;99.90;;;;;;4997844;28;20674;-51
2021/04/05 01:08:40;;;;;;;17.23;9.87;;;6.30;99.90;;;;;;5003731;28;20746;-57
2021/04/05 01:11:10;;;;;;;13.27;8.40;;;6.30;99.90;;;;;;4984741;28;20258;-51
2021/04/05 01:13:37;;;;;;;22.90;10.77;;;6.30;99.90;;;;;;5000841;28;20209;-49
2021/04/05 01:16:04;;;;;;;18.00;10.63;;;6.30;99.90;;;;;;5002547;28;20304;-49
2021/04/05 01:18:31;;;;;;;20.63;9.50;;;6.30;99.90;;;;;;5002669;28;20246;-49
2021/04/05 01:20:58;;;;;;;16.33;10.10;;;6.30;99.90;;;;;;4995795;28;20221;-54
2021/04/05 01:23:25;;;;;;;20.33;10.53;;;6.30;99.90;;;;;;4994973;28;20300;-47
2021/04/05 01:25:52;;;;;;;19.50;10.17;;;6.30;99.90;;;;;;5005674;28;20666;-49
2021/04/05 01:28:18;;;;;;;23.13;9.93;;;6.30;99.90;;;;;;4982273;28;20406;-48
2021/04/05 01:30:46;;;;;;;20.87;10.47;;;6.40;99.90;;;;;;5001647;28;20274;-48
2021/04/05 01:33:16;;;;;;;18.67;10.10;;;6.40;99.90;;;;;;5001834;28;20193;-54
2021/04/05 01:35:45;;;;;;;18.47;10.67;;;6.40;99.90;;;;;;4995611;28;20674;-54
2021/04/05 01:38:13;;;;;;;18.83;10.43;;;6.40;99.90;;;;;;4997294;28;20213;-48
2021/04/05 01:40:42;;;;;;;21.17;11.60;;;6.40;99.90;;;;;;5001762;28;20225;-53
2021/04/05 01:43:09;;;;;;;18.63;11.37;;;6.40;99.90;;;;;;4984032;28;20322;-49
2021/04/05 01:45:35;;;;;;;18.57;10.43;;;6.40;99.90;;;;;;5001307;28;20547;-54
2021/04/05 01:48:02;;;;;;;19.20;11.57;;;6.40;99.90;;;;;;5002211;28;20319;-52
2021/04/05 01:50:28;;;;;;;20.07;11.20;;;6.40;99.90;;;;;;5003465;28;20216;-51
2021/04/05 01:52:54;;;;;;;20.50;11.37;;;6.40;99.90;;;;;;4993668;28;20503;-52
2021/04/05 01:55:21;;;;;;;17.63;11.87;;;6.40;99.90;;;;;;5007562;28;20201;-55
2021/04/05 01:57:49;;;;;;;20.30;10.80;;;6.40;99.90;;;;;;4993366;28;20224;-53
2021/04/05 02:00:23;;;;;;;19.17;11.03;;;6.40;99.90;;;;;;4999962;28;20634;-54
2021/04/05 02:02:50;;;;;;;20.33;10.20;;;6.50;99.90;;;;;;4996887;28;20207;-51
2021/04/05 02:05:17;;;;;;;19.17;10.67;;;6.50;99.90;;;;;;5005584;28;20213;-56
2021/04/05 02:07:43;;;;;;;21.93;11.13;;;6.40;99.90;;;;;;5001103;28;20209;-52
2021/04/05 02:10:12;;;;;;;17.97;9.67;;;6.50;99.90;;;;;;5000433;28;20846;-52
2021/04/05 02:12:39;;;;;;;19.00;10.50;;;6.50;99.90;;;;;;5003855;28;20200;-50
2021/04/05 02:15:09;;;;;;;22.27;11.03;;;6.50;99.90;;;;;;4982441;28;20605;-50
2021/04/05 02:17:36;;;;;;;18.03;10.93;;;6.50;99.90;;;;;;4991248;28;20213;-52
2021/04/05 02:20:07;;;;;;;21.60;11.30;;;6.50;99.90;;;;;;4990328;28;20475;-51
2021/04/05 02:22:33;;;;;;;14.30;9.90;;;6.50;99.90;;;;;;4997181;28;20221;-54
2021/04/05 02:24:59;;;;;;;23.53;12.10;;;6.50;99.90;;;;;;4996365;28;20283;-53
2021/04/05 02:27:26;;;;;;;17.93;11.53;;;6.50;99.90;;;;;;5002698;28;20262;-49
2021/04/05 02:29:52;;;;;;;18.47;10.77;;;6.50;99.90;;;;;;4984851;28;20290;-54
2021/04/05 02:32:20;;;;;;;18.57;11.40;;;6.50;99.90;;;;;;4994120;28;20198;-47
2021/04/05 02:34:46;;;;;;;19.07;11.13;;;6.50;99.90;;;;;;5001351;28;20200;-53
2021/04/05 02:37:13;;;;;;;21.10;10.83;;;6.50;99.90;;;;;;5003838;28;20200;-47
2021/04/05 02:39:39;;;;;;;19.33;10.60;;;6.50;99.90;;;;;;4996922;28;20221;-52
2021/04/05 02:42:07;;;;;;;18.57;11.03;;;6.50;99.90;;;;;;5004588;28;20472;-51
2021/04/05 02:44:33;;;;;;;25.90;11.83;;;6.50;99.90;;;;;;5004480;28;20205;-52
2021/04/05 02:47:00;;;;;;;17.73;10.03;;;6.60;99.90;;;;;;4984387;28;20486;-57
2021/04/05 02:49:28;;;;;;;22.07;12.07;;;6.50;99.90;;;;;;4999839;28;20220;-52
2021/04/05 02:51:54;;;;;;;19.53;11.97;;;6.50;99.90;;;;;;4999446;28;20192;-52
2021/04/05 02:54:22;;;;;;;18.60;10.87;;;6.60;99.90;;;;;;4999145;28;20211;-48
2021/04/05 02:56:49;;;;;;;19.83;11.10;;;6.60;99.90;;;;;;5000347;28;20205;-50
2021/04/05 02:59:17;;;;;;;19.23;11.73;;;6.50;99.90;;;;;;5004069;28;20209;-55
2021/04/05 03:01:43;;;;;;;16.40;10.13;;;6.60;99.90;;;;;;4987236;28;20224;-53
2021/04/05 03:04:10;;;;;;;19.87;10.23;;;6.50;99.90;;;;;;5005121;28;20262;-52
2021/04/05 03:06:37;;;;;;;19.73;10.83;;;6.50;99.90;;;;;;5005331;28;20215;-54
2021/04/05 03:09:06;;;;;;;22.67;8.97;;;6.50;99.90;;;;;;4994313;28;20221;-48
2021/04/05 03:11:33;;;;;;;19.80;10.37;;;6.40;99.90;;;;;;4997152;28;20274;-55
2021/04/05 03:13:59;;;;;;;15.50;8.33;;;6.40;99.90;;;;;;5000065;28;20230;-51
2021/04/05 03:16:27;;;;;;;20.17;10.53;;;6.30;99.90;;;;;;4985325;28;20224;-49
2021/04/05 03:18:57;;;;;;;27.07;11.57;;;6.20;99.90;;;;;;4995902;28;20690;-54
2021/04/05 03:21:24;;;;;;;16.43;9.63;;;6.20;99.90;;;;;;5004546;28;20303;-54
2021/04/05 03:23:52;;;;;;;27.40;12.23;;;6.20;99.90;;;;;;4992910;28;20826;-55
2021/04/05 03:26:19;;;;;;;24.73;10.23;;;6.10;99.90;;;;;;4992921;28;20396;-56
2021/04/05 03:28:45;;;;;;;17.20;9.03;;;6.10;99.90;;;;;;4998911;28;20204;-50
2021/04/05 03:31:15;;;;;;;17.13;9.70;;;6.00;99.90;;;;;;5002100;28;20192;-49
2021/04/05 03:33:45;;;;;;;22.63;10.87;;;6.00;99.90;;;;;;4982136;28;20205;-55
2021/04/05 03:36:14;;;;;;;22.00;10.17;;;6.00;99.90;;;;;;4997097;28;20196;-52
2021/04/05 03:38:41;;;;;;;20.37;11.07;;;5.90;99.90;;;;;;4999585;28;20197;-54
2021/04/05 03:41:26;;;;;;;21.73;9.23;;;5.90;99.90;;;;;;4997693;28;20307;-52
2021/04/05 03:43:58;;;;;;;19.40;10.27;;;5.90;99.90;;;;;;4995586;28;20579;-58
2021/04/05 03:46:29;;;;;;;22.07;11.50;;;5.90;99.90;;;;;;5002709;28;20232;-49
2021/04/05 03:49:01;;;;;;;17.13;10.60;;;5.90;99.90;;;;;;4986342;28;20224;-53
2021/04/05 03:51:35;;;;;;;22.10;10.83;;;5.90;99.90;;;;;;5001092;28;20205;-51
2021/04/05 03:54:05;;;;;;;18.40;10.57;;;5.90;99.90;;;;;;5003111;28;20208;-55
2021/04/05 03:56:40;;;;;;;26.13;12.50;;;5.90;99.90;;;;;;4999313;28;20209;-51
2021/04/05 03:59:09;;;;;;;16.53;9.53;;;5.90;99.90;;;;;;5017818;28;20238;-49
2021/04/05 04:01:44;;;;;;;20.10;10.67;;;5.90;99.90;;;;;;4973162;28;20221;-50
2021/04/05 04:04:15;;;;;;;28.00;11.20;;;5.90;99.90;;;;;;5000758;28;20203;-50
2021/04/05 04:06:50;;;;;;;20.90;11.33;;;5.90;99.90;;;;;;4994711;28;20204;-52
2021/04/05 04:09:18;;;;;;;4.90;3.80;;;5.90;99.90;;;;;;4998215;28;20216;-50
2021/04/05 04:11:48;;;;;;;2.60;2.10;;;5.80;99.90;;;;;;4992661;28;20473;-49
2021/04/05 04:14:16;;;;;;;2.47;1.73;;;5.50;99.90;;;;;;4997329;28;20654;-51
2021/04/05 04:16:45;;;;;;;3.43;1.70;;;5.40;99.90;;;;;;4998847;28;20391;-51
2021/04/05 04:19:13;;;;;;;1.77;0.93;;;5.30;99.90;;;;;;4987119;28;20229;-50
2021/04/05 04:21:42;;;;;;;1.13;0.50;;;5.10;99.90;;;;;;4992061;28;20563;-53
2021/04/05 04:24:09;;;;;;;0.90;0.47;;;5.00;99.90;;;;;;5001723;28;20215;-56
2021/04/05 04:26:36;;;;;;;1.13;0.43;;;4.90;99.90;;;;;;5001394;28;20290;-51
2021/04/05 04:29:03;;;;;;;1.03;0.37;;;4.80;99.90;;;;;;4996220;28;22958;-54
2021/04/05 04:31:30;;;;;;;2.43;0.50;;;4.80;99.90;;;;;;5002203;28;20204;-50
2021/04/05 04:33:56;;;;;;;0.30;0.30;;;4.70;99.90;;;;;;4985780;28;21026;-52
2021/04/05 04:36:23;;;;;;;0.90;0.40;;;4.70;99.90;;;;;;5001700;28;20207;-55
2021/04/05 04:38:52;;;;;;;0.33;0.30;;;4.60;99.90;;;;;;4993751;28;20473;-55
2021/04/05 04:41:22;;;;;;;1.23;0.40;;;4.60;99.90;;;;;;5000678;28;20224;-51
2021/04/05 04:43:54;;;;;;;4.77;0.40;;;4.60;99.90;;;;;;4995674;28;20258;-56
2021/04/05 04:46:21;;;;;;;2.43;0.60;;;4.60;99.90;;;;;;5005485;28;20222;-50
2021/04/05 04:48:47;;;;;;;0.60;0.40;;;4.50;99.90;;;;;;5000432;28;20219;-56
2021/04/05 04:51:13;;;;;;;1.23;0.30;;;4.40;99.90;;;;;;4988731;28;20203;-52
2021/04/05 04:53:39;;;;;;;1.13;0.60;;;4.40;99.90;;;;;;4993734;28;20286;-51
2021/04/05 04:56:06;;;;;;;1.00;0.70;;;4.40;99.90;;;;;;5004501;28;20208;-48
2021/04/05 04:58:32;;;;;;;1.67;0.40;;;4.40;99.90;;;;;;5001468;28;20211;-57
2021/04/05 05:00:58;;;;;;;2.23;0.67;;;4.40;99.90;;;;;;5001610;28;20433;-49
2021/04/05 05:03:26;;;;;;;2.33;1.20;;;4.40;99.90;;;;;;5005872;28;20208;-54
2021/04/05 05:05:53;;;;;;;6.80;1.77;;;4.40;99.90;;;;;;4988837;28;20217;-57
2021/04/05 05:08:20;;;;;;;1.80;1.53;;;4.40;99.90;;;;;;5004055;28;20723;-55
2021/04/05 05:10:47;;;;;;;4.17;2.47;;;4.40;99.90;;;;;;4993566;28;20232;-55
2021/04/05 05:13:14;;;;;;;4.97;1.70;;;4.40;99.90;;;;;;5006431;28;20206;-51
2021/04/05 05:15:43;;;;;;;6.30;1.83;;;4.50;99.90;;;;;;4996829;28;20568;-51
2021/04/05 05:18:11;;;;;;;4.90;1.40;;;4.50;99.90;;;;;;5008124;28;20203;-54
2021/04/05 05:20:38;;;;;;;2.73;1.00;;;4.50;99.90;;;;;;5004512;28;20284;-52
2021/04/05 05:23:05;;;;;;;3.27;1.03;;;4.40;99.90;;;;;;4984253;28;20216;-53
2021/04/05 05:25:33;;;;;;;4.17;0.77;;;4.40;99.90;;;;;;4999422;28;20231;-49
2021/04/05 05:28:03;;;;;;;4.93;0.67;;;4.30;99.90;;;;;;5006539;28;20391;-55
2021/04/05 05:30:30;;;;;;;3.33;0.50;;;4.30;99.90;;;;;;4999508;28;20224;-49
2021/04/05 05:32:59;;;;;;;2.23;0.90;;;4.20;99.90;;;;;;5005690;28;20420;-51
2021/04/05 05:35:26;;;;;;;4.67;1.20;;;4.20;99.90;;;;;;5006760;28;20224;-49
2021/04/05 05:37:59;;;;;;;4.13;0.77;;;4.10;99.90;;;;;;4988042;28;20197;-57
2021/04/05 05:40:27;;;;;;;4.77;0.93;;;4.10;99.90;;;;;;4998268;28;20220;-47
2021/04/05 05:43:09;;;;;;;5.87;1.17;;;4.00;99.90;;;;;;4999244;28;20848;-48
2021/04/05 05:46:00;;;;;;;3.90;1.10;;;4.00;99.90;;;;;;4987470;28;20222;-54
2021/04/05 05:48:43;;;;;;;5.13;1.40;;;3.90;99.90;;;;;;5004930;28;20201;-46
2021/04/05 05:51:17;;;;;;;2.70;0.77;;;3.90;99.90;;;;;;4994320;28;20205;-49
2021/04/05 05:53:55;;;;;;;4.60;1.30;;;3.70;99.90;;;;;;4984164;28;20247;-54
2021/04/05 05:56:35;;;;;;;3.47;0.77;;;3.50;99.90;;;;;;4990242;28;20200;-55
2021/04/05 05:59:06;;;;;;;3.87;1.00;;;3.40;99.90;;;;;;5004913;28;20280;-53
2021/04/05 06:01:44;;;;;;;4.73;1.10;;;3.30;99.90;;;;;;4987273;28;20350;-53
2021/04/05 06:04:18;;;;;;;2.97;1.13;;;3.20;99.90;;;;;;4998864;28;20204;-52
2021/04/05 06:06:53;;;;;;;4.50;1.30;;;3.20;99.90;;;;;;4996157;28;20579;-48
2021/04/05 06:09:32;;;;;;;5.23;1.27;;;3.30;99.90;;;;;;4980623;28;20222;-56
2021/04/05 06:12:06;;;;;;;8.63;1.87;;;3.30;99.90;;;;;;5001651;28;20559;-50
2021/04/05 06:14:49;;;;;;;6.50;1.40;;;3.30;99.90;;;;;;4993345;28;20210;-53
2021/04/05 06:17:25;;;;;;;3.50;1.03;;;3.30;99.90;;;;;;4998024;28;20660;-54
2021/04/05 06:19:52;;;;;;;3.63;0.67;;;3.30;99.90;;;;;;5018913;28;20234;-49
2021/04/05 06:22:40;;;;;;;8.70;1.50;;;3.20;99.90;;;;;;4985443;28;20571;-52
2021/04/05 06:25:18;;;;;;;2.93;1.23;;;3.20;99.90;;;;;;4980428;28;20233;-48
2021/04/05 06:27:52;;;;;;;3.87;1.07;;;3.20;99.90;;;;;;4989715;28;20210;-47
2021/04/05 06:30:25;;;;;;;3.37;0.57;;;3.10;99.90;;;;;;4990275;28;20238;-50
2021/04/05 06:32:57;;;;;;;4.90;0.90;;;3.10;99.90;;;;;;5007312;28;20204;-51
2021/04/05 06:35:49;;;;;;;4.80;0.70;;;3.10;99.90;;;;;;4996273;28;20381;-50
2021/04/05 06:38:20;;;;;;;2.63;0.80;;;3.10;99.90;;;;;;4989724;28;20211;-49
2021/04/05 06:40:48;;;;;;;2.07;0.60;;;3.20;99.90;;;;;;5003795;28;20696;-52
2021/04/05 06:43:30;;;;;;;3.33;0.70;;;3.20;99.90;;;;;;4994079;28;20207;-54
2021/04/05 06:46:12;;;;;;;5.23;0.60;;;3.10;99.90;;;;;;5002624;28;20214;-55
2021/04/05 06:49:03;;;;;;;1.67;0.43;;;3.10;99.90;;;;;;4997430;28;20479;-51
2021/04/05 06:51:55;;;;;;;6.10;1.00;;;3.10;99.90;;;;;;5001900;28;20398;-51
2021/04/05 06:55:02;;;;;;;6.53;1.00;;;3.00;99.90;;;;;;4987037;28;20413;-55
2021/04/05 06:57:51;;;;;;;2.60;0.77;;;3.00;99.90;;;;;;4997132;28;20338;-54
2021/04/05 07:00:24;;;;;;;2.03;0.83;;;3.00;99.90;;;;;;4988021;28;20234;-49
2021/04/05 07:03:05;;;;;;;4.67;0.70;;;3.00;99.90;;;;;;4995566;28;20239;-53
2021/04/05 07:05:59;;;;;;;3.03;0.87;;;3.00;99.90;;;;;;4995116;28;20223;-55
2021/04/05 07:08:31;;;;;;;2.57;0.80;;;3.00;99.90;;;;;;4999201;28;20200;-51
2021/04/05 07:11:13;;;;;;;3.70;0.80;;;3.00;99.90;;;;;;5002510;28;20781;-54
2021/04/05 07:13:54;;;;;;;5.57;0.87;;;3.10;99.90;;;;;;4994307;28;20211;-53
2021/04/05 07:16:29;;;;;;;4.03;1.20;;;3.20;99.90;;;;;;4994939;28;20195;-54
2021/04/05 07:19:05;;;;;;;2.33;0.90;;;3.20;99.90;;;;;;4997878;28;20754;-52
2021/04/05 07:21:41;;;;;;;3.33;1.03;;;3.20;99.90;;;;;;4998095;28;20350;-56
2021/04/05 07:24:19;;;;;;;5.20;0.77;;;3.20;99.90;;;;;;5000994;28;20219;-51
2021/04/05 07:26:50;;;;;;;4.30;1.00;;;3.20;99.90;;;;;;4988090;28;20283;-53
2021/04/05 07:29:24;;;;;;;4.90;1.00;;;3.30;99.90;;;;;;4992680;28;20244;-52
2021/04/05 07:31:57;;;;;;;6.10;1.00;;;3.30;99.90;;;;;;5000722;28;20287;-49
2021/04/05 07:34:32;;;;;;;3.80;0.90;;;3.40;99.90;;;;;;5001732;28;20186;-50
2021/04/05 07:37:12;;;;;;;8.70;0.80;;;3.50;99.90;;;;;;4998236;28;20674;-53
2021/04/05 07:39:45;;;;;;;8.73;1.10;;;3.60;99.90;;;;;;5003887;28;20964;-48
2021/04/05 07:42:20;;;;;;;3.93;0.90;;;3.60;99.90;;;;;;4984810;28;20230;-52
2021/04/05 07:45:02;;;;;;;2.93;0.60;;;3.50;99.90;;;;;;4991284;28;20207;-49
2021/04/05 07:47:37;;;;;;;2.33;0.57;;;3.00;99.90;;;;;;4995864;28;20866;-50
2021/04/05 07:50:09;;;;;;;3.30;0.53;;;2.40;99.90;;;;;;4994932;28;20307;-50
2021/04/05 07:52:44;;;;;;;1.27;0.43;;;2.20;99.90;;;;;;4996383;28;20210;-50
2021/04/05 07:55:12;;;;;;;3.00;0.60;;;2.10;99.90;;;;;;5000495;28;20209;-50
2021/04/05 07:57:48;;;;;;;2.40;0.70;;;2.30;99.90;;;;;;4989563;28;20427;-54
2021/04/05 08:00:27;;;;;;;6.17;0.67;;;2.50;99.90;;;;;;4994862;28;20715;-52
2021/04/05 08:03:02;;;;;;;5.67;0.70;;;2.70;99.90;;;;;;5004884;28;20222;-54
2021/04/05 08:05:40;;;;;;;4.30;0.60;;;2.90;99.90;;;;;;4991605;28;20204;-48
2021/04/05 08:08:26;;;;;;;1.87;0.50;;;3.20;99.90;;;;;;4993811;28;20213;-53
2021/04/05 08:11:05;;;;;;;2.27;0.40;;;3.10;99.90;;;;;;4999090;28;20261;-48
2021/04/05 08:13:47;;;;;;;1.03;0.30;;;2.80;99.90;;;;;;4984246;28;20211;-50
2021/04/05 08:16:26;;;;;;;2.03;0.30;;;2.60;99.90;;;;;;4988471;28;20212;-57
2021/04/05 08:18:57;;;;;;;0.20;0.20;;;2.50;99.90;;;;;;4996200;28;20203;-48
2021/04/05 08:21:30;;;;;;;1.43;0.20;;;2.40;99.90;;;;;;4986617;28;20792;-54
2021/04/05 08:24:05;;;;;;;1.57;0.30;;;2.40;99.90;;;;;;4989930;28;20231;-57
2021/04/05 08:26:37;;;;;;;1.70;0.20;;;2.40;99.90;;;;;;4996812;28;20271;-56
2021/04/05 08:29:10;;;;;;;4.73;0.20;;;2.50;99.90;;;;;;4987827;28;20607;-54
2021/04/05 08:31:53;;;;;;;0.40;0.20;;;2.50;99.90;;;;;;4990638;28;20203;-50
2021/04/05 08:34:31;;;;;;;1.20;0.10;;;2.50;99.90;;;;;;4987966;28;20226;-49
2021/04/05 08:37:11;;;;;;;0.30;0.13;;;2.40;99.90;;;;;;4991747;28;20271;-52
2021/04/05 08:39:44;;;;;;;0.30;0.20;;;2.40;99.90;;;;;;4987340;28;20415;-52
2021/04/05 08:42:17;;;;;;;1.20;0.20;;;2.40;99.90;;;;;;4997672;28;20250;-48
2021/04/05 08:44:50;;;;;;;0.87;0.20;;;2.40;99.90;;;;;;4982960;28;20827;-50
2021/04/05 08:47:22;;;;;;;1.10;0.30;;;2.30;99.90;;;;;;4996193;28;20209;-49
2021/04/05 08:49:48;;;;;;;2.30;0.40;;;1.80;99.90;;;;;;4989113;28;20242;-56
2021/04/05 08:52:20;;;;;;;3.20;0.60;;;1.60;99.90;;;;;;4993601;28;20206;-54
2021/04/05 08:54:49;;;;;;;1.77;0.40;;;1.50;99.90;;;;;;4991796;28;20213;-54
2021/04/05 08:57:22;;;;;;;1.57;0.40;;;1.50;99.90;;;;;;4997665;28;20209;-57
2021/04/05 08:59:53;;;;;;;2.70;0.83;;;1.60;99.90;;;;;;4992616;28;20209;-51
2021/04/05 09:02:21;;;;;;;2.97;0.50;;;1.70;99.90;;;;;;4984958;28;20221;-48
2021/04/05 09:04:49;;;;;;;4.83;0.63;;;1.80;99.90;;;;;;4988925;28;20205;-56
2021/04/05 09:07:29;;;;;;;1.43;0.77;;;1.80;99.90;;;;;;4993917;28;20564;-54
2021/04/05 09:09:59;;;;;;;8.30;1.00;;;1.80;99.90;;;;;;4992204;28;21009;-56
2021/04/05 09:12:26;;;;;;;6.23;1.10;;;1.90;99.90;;;;;;4992233;28;20455;-52
2021/04/05 09:15:09;;;;;;;4.97;0.80;;;1.90;99.90;;;;;;4992253;28;20445;-50
2021/04/05 09:17:49;;;;;;;3.70;0.77;;;1.80;99.90;;;;;;4976607;28;20202;-49
2021/04/05 09:20:31;;;;;;;4.13;0.73;;;1.80;99.90;;;;;;4996231;28;20223;-48
2021/04/05 09:23:25;;;;;;;1.73;1.07;;;1.90;99.90;;;;;;4995702;28;20297;-48
2021/04/05 09:26:23;;;;;;;5.47;1.23;;;2.10;99.90;;;;;;4994322;28;20202;-52
2021/04/05 09:29:07;;;;;;;4.57;1.20;;;2.20;99.90;;;;;;4993558;28;20228;-53
2021/04/05 09:32:10;;;;;;;6.60;0.80;;;2.40;99.90;;;;;;4989355;28;20197;-49
2021/04/05 09:35:05;;;;;;;3.93;1.20;;;2.50;99.90;;;;;;4991831;28;20661;-51
2021/04/05 09:37:49;;;;;;;3.50;1.07;;;2.70;99.90;;;;;;4998990;28;20202;-53
2021/04/05 09:40:30;;;;;;;4.97;1.60;;;2.90;99.90;;;;;;4995137;28;20226;-51
2021/04/05 09:43:23;;;;;;;5.70;1.63;;;3.00;99.90;;;;;;5005005;28;20449;-51
2021/04/05 09:45:58;;;;;;;7.80;1.00;;;3.10;99.90;;;;;;4997571;28;20306;-55
2021/04/05 09:48:40;;;;;;;5.20;0.90;;;3.20;99.90;;;;;;4989910;28;20200;-55
2021/04/05 09:51:43;;;;;;;10.73;1.37;;;3.30;99.90;;;;;;5005338;28;20675;-52
2021/04/05 09:54:16;;;;;;;6.70;0.83;;;3.50;99.90;;;;;;4999889;28;20229;-52
2021/04/05 09:56:47;;;;;;;2.67;0.93;;;3.70;99.90;;;;;;4987186;28;20270;-53
2021/04/05 09:59:18;;;;;;;6.07;2.20;;;3.80;99.90;;;;;;4994407;28;20216;-58
2021/04/05 10:01:49;;;;;;;3.57;1.10;;;3.90;99.90;;;;;;4990049;28;20285;-52
2021/04/05 10:04:21;;;;;;;5.40;0.90;;;3.90;99.90;;;;;;4999044;28;20675;-56
2021/04/05 10:06:51;;;;;;;1.27;0.53;;;3.90;99.90;;;;;;4997793;28;20204;-53
2021/04/05 10:09:20;;;;;;;1.47;0.60;;;4.00;95.50;;;;;;5000945;28;20689;-56
2021/04/05 10:11:47;;;;;;;3.30;0.87;;;4.10;96.80;;;;;;4985272;28;20199;-50
2021/04/05 10:14:18;;;;;;;2.07;0.80;;;4.20;94.20;;;;;;4994737;28;20193;-53
2021/04/05 10:16:53;;;;;;;6.90;1.00;;;4.40;93.60;;;;;;4994612;28;20223;-50
2021/04/05 10:19:25;;;;;;;5.80;1.10;;;4.50;85.20;;;;;;4979402;28;20231;-52
2021/04/05 10:21:57;;;;;;;2.23;0.60;;;4.30;74.70;;;;;;4998349;28;20414;-51
2021/04/05 10:24:25;;;;;;;1.80;0.97;;;4.20;70.00;;;;;;5002076;28;20207;-55
2021/04/05 10:26:54;;;;;;;6.77;1.70;;;4.20;67.40;;;;;;4990009;28;20239;-55
2021/04/05 10:29:24;;;;;;;3.00;1.07;;;4.40;69.00;;;;;;4998618;28;20228;-50
2021/04/05 10:31:51;;;;;;;1.87;0.63;;;4.30;67.80;;;;;;4993129;28;20192;-53
2021/04/05 10:34:21;;;;;;;5.23;0.90;;;4.40;75.20;;;;;;4989415;28;20203;-52
2021/04/05 10:36:51;;;;;;;4.37;0.80;;;4.50;72.20;;;;;;4986749;28;20203;-53
2021/04/05 10:39:18;;;;;;;6.80;0.93;;;4.50;74.20;;;;;;4998104;28;20270;-52
2021/04/05 10:41:50;;;;;;;6.43;1.30;;;4.50;78.40;;;;;;4995060;28;20227;-49
2021/04/05 10:44:17;;;;;;;5.27;1.30;;;4.60;79.10;;;;;;5001154;28;20210;-55
2021/04/05 10:46:49;;;;;;;7.00;1.17;;;4.60;83.20;;;;;;4996683;28;20218;-52
2021/04/05 10:49:17;;;;;;;7.30;1.37;;;4.40;84.90;;;;;;5004941;28;20227;-54
2021/04/05 10:51:46;;;;;;;4.80;0.87;;;4.40;90.00;;;;;;4980979;28;20570;-51
2021/04/05 10:54:24;;;;;;;2.30;0.90;;;4.40;90.90;;;;;;4993387;28;20212;-54
2021/04/05 10:56:54;;;;;;;3.40;0.77;;;4.30;86.70;;;;;;4987872;28;20306;-52
2021/04/05 10:59:28;;;;;;;2.27;0.67;;;4.30;82.30;;;;;;4996470;28;20251;-53
2021/04/05 11:02:00;;;;;;;4.90;1.63;;;4.20;80.40;;;;;;4995936;28;20449;-55
2021/04/05 11:04:26;;;;;;;4.10;0.50;;;4.20;81.60;;;;;;5005977;28;20208;-54
2021/04/05 11:06:55;;;;;;;2.57;1.07;;;4.10;74.50;;;;;;4982402;28;20593;-54
2021/04/05 11:09:24;;;;;;;1.33;1.00;;;4.00;72.20;;;;;;5013483;28;20228;-56
2021/04/05 11:11:53;;;;;;;6.20;0.60;;;4.00;69.10;;;;;;4997932;28;20228;-53
2021/04/05 11:14:23;;;;;;;3.53;0.50;;;4.10;73.30;;;;;;4994053;28;20211;-53
2021/04/05 11:16:51;;;;;;;1.63;0.60;;;4.20;69.90;;;;;;4988013;28;20259;-50
2021/04/05 11:19:26;;;;;;;1.77;0.50;;;4.30;70.60;;;;;;5001075;28;20212;-56
2021/04/05 11:21:53;;;;;;;3.13;0.83;;;4.30;70.40;;;;;;4978664;28;20223;-55
2021/04/05 11:24:35;;;;;;;3.67;0.97;;;4.40;72.70;;;;;;4994647;28;20200;-50
2021/04/05 11:27:06;;;;;;;2.93;0.67;;;4.60;69.00;;;;;;4993398;28;20307;-50
2021/04/05 11:29:33;;;;;;;4.63;0.97;;;4.70;73.00;;;;;;4996738;28;20231;-51
2021/04/05 11:32:01;;;;;;;2.70;1.00;;;4.80;76.90;;;;;;4992104;28;20196;-55
2021/04/05 11:34:31;;;;;;;3.30;0.90;;;4.80;85.50;;;;;;4994979;28;20203;-50
2021/04/05 11:36:59;;;;;;;4.23;1.50;;;4.30;89.50;;;;;;4984633;28;20239;-53
2021/04/05 11:39:31;;;;;;;2.13;0.80;;;4.20;91.60;;;;;;4993484;28;20304;-49
2021/04/05 11:42:00;;;;;;;5.47;1.50;;;4.20;91.40;;;;;;4993966;28;20223;-50
2021/04/05 11:44:30;;;;;;;2.17;0.87;;;4.30;93.30;;;;;;4999843;28;20567;-53
2021/04/05 11:46:58;;;;;;;2.53;0.67;;;4.40;97.90;;;;;;4996292;28;20197;-52
2021/04/05 11:49:31;;;;;;;4.77;0.70;;;4.30;98.10;;;;;;5002497;28;20234;-50
2021/04/05 11:52:06;;;;;;;5.20;1.10;;;4.20;99.60;;;;;;4984668;28;20207;-47
2021/04/05 11:54:40;;;;;;;6.80;1.20;;;4.20;98.90;;;;;;4994973;28;20205;-50
2021/04/05 11:57:10;;;;;;;2.97;0.77;;;4.30;99.50;;;;;;4998383;28;20689;-56
2021/04/05 11:59:46;;;;;;;4.33;0.73;;;4.30;97.90;;;;;;5000604;28;20280;-52
2021/04/05 12:02:22;;;;;;;2.57;0.60;;;4.50;98.10;;;;;;4994185;28;20217;-51
2021/04/05 12:04:52;;;;;;;5.90;1.00;;;4.70;97.50;;;;;;4996804;28;20274;-50
2021/04/05 12:07:20;;;;;;;2.27;0.83;;;4.80;97.80;;;;;;4983162;28;20677;-48
2021/04/05 12:09:55;;;;;;;3.10;0.70;;;4.50;99.90;;;;;;4994908;28;20228;-54
2021/04/05 12:12:27;;;;;;;3.50;0.40;;;3.80;99.90;;;;;;4997703;28;20196;-51
2021/04/05 12:14:55;;;;;;;1.60;0.50;;;3.20;99.90;;;;;;4996295;28;20366;-54
2021/04/05 12:17:23;;;;;;;4.67;0.70;;;3.10;99.90;;;;;;4987568;28;21338;-55
2021/04/05 12:19:52;;;;;;;3.10;0.80;;;3.00;99.90;;;;;;4994607;28;20708;-53
2021/04/05 12:22:25;;;;;;;2.63;0.93;;;3.10;99.90;;;;;;5000665;28;20286;-55
2021/04/05 12:24:54;;;;;;;3.13;0.77;;;3.10;99.90;;;;;;4980639;28;20202;-49
2021/04/05 12:27:30;;;;;;;2.63;0.90;;;3.20;99.90;;;;;;4998321;28;20215;-52
2021/04/05 12:29:58;;;;;;;3.20;0.60;;;3.40;99.90;;;;;;4997481;28;20228;-50
2021/04/05 12:32:25;;;;;;;2.77;0.90;;;3.60;99.90;;;;;;4990857;28;20253;-49
2021/04/05 12:34:55;;;;;;;2.93;1.33;;;3.60;99.90;;;;;;4991040;28;20207;-48
2021/04/05 12:37:22;;;;;;;2.40;0.50;;;3.40;99.90;;;;;;4994549;28;20204;-49
2021/04/05 12:39:52;;;;;;;2.63;1.00;;;3.10;99.90;;;;;;4979029;28;20238;-47
2021/04/05 12:42:20;;;;;;;2.97;0.50;;;3.00;99.90;;;;;;4998835;28;20223;-47
2021/04/05 12:44:53;;;;;;;0.37;0.20;;;3.00;99.90;;;;;;4999485;28;20204;-50
2021/04/05 12:47:20;;;;;;;2.27;0.40;;;3.00;99.90;;;;;;4991019;28;20202;-50
2021/04/05 12:49:48;;;;;;;1.60;0.27;;;2.70;99.90;;;;;;4993402;28;20226;-50
2021/04/05 12:52:16;;;;;;;3.10;0.70;;;2.40;99.90;;;;;;5004476;28;20188;-50
2021/04/05 12:54:45;;;;;;;4.33;0.80;;;2.10;99.90;;;;;;4986578;28;20288;-51
2021/04/05 12:57:13;;;;;;;4.27;0.60;;;1.80;99.90;;;;;;4991590;28;20281;-51
2021/04/05 12:59:40;;;;;;;2.40;0.73;;;1.50;99.90;;;;;;4992729;28;20255;-50
2021/04/05 13:02:15;;;;;;;4.80;0.83;;;1.40;99.90;;;;;;4990694;28;20239;-47
2021/04/05 13:04:50;;;;;;;3.93;0.57;;;1.60;99.90;;;;;;4984345;28;20206;-50
2021/04/05 13:07:18;;;;;;;4.60;0.83;;;1.70;99.90;;;;;;5001629;28;20198;-49
2021/04/05 13:09:53;;;;;;;2.97;1.43;;;1.80;99.90;;;;;;4998198;28;20620;-46
2021/04/05 13:12:26;;;;;;;6.97;1.07;;;1.80;99.90;;;;;;4990584;28;20201;-47
2021/04/05 13:14:54;;;;;;;3.50;0.30;;;1.90;99.90;;;;;;5002606;28;20321;-48